Time;durP1;ratioP1;P1;durP2;ratioP2;P2;SDS_P1;SDS_P2;PMS_P1;PMS_P2;Temp;Humidity;BMP_temperature;BMP_pressure;BME280_temperature;BME280_humidity;BME280_pressure;Samples;Min_cycle;Max_cycle;Signal;HPM_P1;HPM_P2
2021/05/06 00:33:35;;;;;;;3.07;1.50;;;;;;;;;;4991371;28;21138;-87
2021/05/06 00:36:39;;;;;;;2.33;1.20;;;;;;;;;;4998349;28;20593;-87
2021/05/06 00:39:59;;;;;;;2.63;1.30;;;;;;;;;;4994770;28;20609;-87
2021/05/06 00:46:29;;;;;;;1.93;1.10;;;;;;;;;;4972084;28;20550;-87
2021/05/06 00:59:59;;;;;;;1.97;1.17;;;;;;;;;;4952383;28;20618;-87
2021/05/06 01:03:17;;;;;;;2.40;1.40;;;;;;;;;;4990166;28;20592;-87
2021/05/06 01:06:24;;;;;;;2.83;1.50;;;;;;;;;;4991001;28;20186;-87
2021/05/06 01:09:38;;;;;;;3.50;1.30;;;;;;;;;;4990563;28;20221;-87
2021/05/06 01:12:43;;;;;;;1.83;1.20;;;;;;;;;;4979342;28;20545;-87
2021/05/06 01:15:47;;;;;;;2.20;1.10;;;;;;;;;;4963589;28;20564;-87
2021/05/06 01:18:52;;;;;;;2.20;1.10;;;;;;;;;;4982035;28;21095;-87
2021/05/06 01:21:56;;;;;;;3.90;1.33;;;;;;;;;;4970854;28;20894;-87
2021/05/06 01:25:01;;;;;;;2.93;1.10;;;;;;;;;;4979134;28;20542;-86
2021/05/06 01:28:12;;;;;;;1.27;1.00;;;;;;;;;;4990244;28;20540;-87
2021/05/06 01:31:20;;;;;;;2.23;1.30;;;;;;;;;;4978642;28;20683;-88
2021/05/06 01:34:24;;;;;;;2.70;1.10;;;;;;;;;;4989904;28;21071;-87
2021/05/06 01:37:38;;;;;;;4.70;1.40;;;;;;;;;;4989989;28;21074;-87
2021/05/06 01:50:36;;;;;;;2.30;1.13;;;;;;;;;;4979817;28;21007;-87
2021/05/06 02:01:05;;;;;;;3.47;1.10;;;;;;;;;;4960606;28;20218;-87
2021/05/06 02:04:11;;;;;;;2.30;1.30;;;;;;;;;;4965290;28;21100;-87
2021/05/06 02:07:16;;;;;;;3.20;1.40;;;;;;;;;;4943229;28;20182;-87
2021/05/06 02:10:28;;;;;;;4.53;1.30;;;;;;;;;;4974421;28;559001;-87
2021/05/06 02:13:37;;;;;;;4.90;1.40;;;;;;;;;;4984055;28;21098;-87
2021/05/06 02:16:43;;;;;;;1.80;1.20;;;;;;;;;;4983403;28;20537;-88
2021/05/06 02:19:49;;;;;;;2.10;1.10;;;;;;;;;;4975146;28;20222;-87
2021/05/06 02:22:54;;;;;;;4.80;1.60;;;;;;;;;;4974533;28;20179;-87
2021/05/06 02:25:58;;;;;;;2.10;0.93;;;;;;;;;;4974287;28;20198;-87
2021/05/06 02:29:02;;;;;;;3.40;1.30;;;;;;;;;;4974235;28;20197;-88
2021/05/06 02:32:08;;;;;;;3.40;1.30;;;;;;;;;;4985404;28;20210;-87
2021/05/06 02:35:13;;;;;;;2.70;1.20;;;;;;;;;;4974136;28;20198;-88
2021/05/06 02:38:17;;;;;;;3.07;1.23;;;;;;;;;;4974101;28;20202;-87
2021/05/06 02:41:21;;;;;;;3.03;1.17;;;;;;;;;;4963292;28;20193;-87
2021/05/06 02:44:25;;;;;;;3.90;1.17;;;;;;;;;;4974300;28;20198;-87
2021/05/06 02:47:29;;;;;;;1.90;1.20;;;;;;;;;;4963000;28;20637;-87
2021/05/06 02:50:34;;;;;;;2.40;1.47;;;;;;;;;;4974256;28;20229;-87
2021/05/06 02:53:45;;;;;;;3.00;1.23;;;;;;;;;;4963084;28;20182;-87
2021/05/06 02:56:57;;;;;;;3.53;1.40;;;;;;;;;;4954665;28;20191;-87
2021/05/06 03:03:47;;;;;;;2.63;0.90;;;;;;;;;;4930525;28;20256;-87
2021/05/06 03:06:59;;;;;;;1.63;0.97;;;;;;;;;;4954456;28;20526;-87
2021/05/06 03:10:18;;;;;;;1.43;1.00;;;;;;;;;;4991416;23;20242;-87
2021/05/06 03:23:11;;;;;;;2.03;1.37;;;;;;;;;;5004280;28;20652;-87
2021/05/06 03:26:16;;;;;;;3.97;1.20;;;;;;;;;;4981807;28;20182;-87
2021/05/06 03:29:26;;;;;;;3.47;1.40;;;;;;;;;;5004042;28;20540;-86
2021/05/06 03:36:09;;;;;;;2.70;1.23;;;;;;;;;;4992977;28;20186;-87
2021/05/06 03:42:41;;;;;;;3.93;1.27;;;;;;;;;;5003866;28;20178;-87
2021/05/06 03:49:37;;;;;;;1.50;1.40;;;;;;;;;;4981545;28;20174;-85
2021/05/06 04:21:30;;;;;;;2.73;1.40;;;;;;;;;;4986351;28;20174;-85
2021/05/06 04:26:11;;;;;;;2.10;1.40;;;;;;;;;;5023409;28;20189;-85
2021/05/06 04:36:10;;;;;;;2.23;1.50;;;;;;;;;;5003090;28;20185;-85
2021/05/06 04:39:16;;;;;;;7.90;1.70;;;;;;;;;;5003542;28;20680;-84
2021/05/06 04:55:49;;;;;;;4.43;2.63;;;;;;;;;;5016482;28;20641;-86
2021/05/06 05:05:26;;;;;;;5.77;1.50;;;;;;;;;;4987070;28;20189;-86
2021/05/06 05:08:41;;;;;;;2.43;1.77;;;;;;;;;;4995426;28;20182;-85
2021/05/06 05:18:25;;;;;;;4.10;1.60;;;;;;;;;;5017185;28;20201;-86
2021/05/06 05:27:47;;;;;;;5.90;2.17;;;;;;;;;;5006654;28;20184;-85
2021/05/06 05:30:51;;;;;;;7.53;1.50;;;;;;;;;;4983495;28;20225;-86
2021/05/06 05:34:03;;;;;;;5.33;1.90;;;;;;;;;;4989154;28;20185;-85
2021/05/06 05:37:15;;;;;;;2.40;1.57;;;;;;;;;;5003430;28;20518;-85
2021/05/06 05:40:29;;;;;;;11.23;8.83;;;;;;;;;;5000098;28;20699;-85
2021/05/06 05:57:38;;;;;;;4.07;1.77;;;;;;;;;;4919291;28;20209;-85
2021/05/06 06:00:42;;;;;;;3.93;2.10;;;;;;;;;;4989690;28;20225;-85
2021/05/06 06:03:47;;;;;;;4.40;1.60;;;;;;;;;;4991834;28;20185;-85
2021/05/06 06:06:51;;;;;;;3.80;1.33;;;;;;;;;;5011777;28;20189;-85
2021/05/06 06:09:56;;;;;;;4.07;1.90;;;;;;;;;;5010828;28;20236;-85
2021/05/06 06:13:00;;;;;;;5.77;1.80;;;;;;;;;;5010622;28;20209;-86
2021/05/06 06:16:12;;;;;;;4.20;1.70;;;;;;;;;;4989716;28;20193;-86
2021/05/06 06:19:18;;;;;;;3.13;1.20;;;;;;;;;;4960315;28;20642;-86
2021/05/06 06:22:22;;;;;;;3.67;1.50;;;;;;;;;;4992989;28;20200;-86
2021/05/06 06:25:26;;;;;;;6.30;1.80;;;;;;;;;;4999357;28;20201;-86
2021/05/06 06:28:38;;;;;;;2.87;1.50;;;;;;;;;;5021218;28;20196;-86
2021/05/06 06:31:50;;;;;;;2.97;1.40;;;;;;;;;;5021876;28;20221;-85
2021/05/06 06:34:54;;;;;;;3.37;1.50;;;;;;;;;;5014265;28;20192;-85
2021/05/06 06:37:58;;;;;;;3.80;1.47;;;;;;;;;;5013201;28;20193;-86
2021/05/06 06:41:04;;;;;;;2.70;1.53;;;;;;;;;;5003047;28;20602;-85
2021/05/06 06:44:09;;;;;;;4.47;1.70;;;;;;;;;;5008131;28;20198;-85
2021/05/06 06:47:13;;;;;;;3.43;1.40;;;;;;;;;;4963504;28;20553;-85
2021/05/06 06:50:17;;;;;;;2.70;1.60;;;;;;;;;;4974372;28;20564;-85
2021/05/06 06:53:21;;;;;;;2.10;1.40;;;;;;;;;;4976071;28;20588;-86
2021/05/06 06:56:25;;;;;;;5.70;1.90;;;;;;;;;;4985623;28;20637;-87
2021/05/06 06:59:30;;;;;;;3.83;1.77;;;;;;;;;;4993469;28;20202;-86
2021/05/06 07:02:34;;;;;;;3.57;1.40;;;;;;;;;;4990613;28;20176;-86
2021/05/06 07:05:38;;;;;;;3.70;1.73;;;;;;;;;;4974361;28;20202;-86
2021/05/06 07:08:45;;;;;;;5.83;1.70;;;;;;;;;;4982449;28;20204;-86
2021/05/06 07:11:50;;;;;;;4.70;1.53;;;;;;;;;;4973826;28;20222;-86
2021/05/06 07:14:54;;;;;;;4.33;1.47;;;;;;;;;;4974173;28;20205;-85
2021/05/06 07:17:58;;;;;;;5.57;1.50;;;;;;;;;;4985056;28;20552;-84
2021/05/06 07:21:04;;;;;;;5.70;1.70;;;;;;;;;;4982175;28;20225;-86
2021/05/06 07:24:09;;;;;;;6.40;1.60;;;;;;;;;;4998243;28;20192;-86
2021/05/06 07:27:13;;;;;;;7.57;1.60;;;;;;;;;;5002076;28;20192;-86
2021/05/06 07:30:18;;;;;;;5.50;1.80;;;;;;;;;;4973388;28;20225;-86
2021/05/06 07:33:23;;;;;;;4.50;2.07;;;;;;;;;;5023883;28;20201;-86
2021/05/06 07:36:27;;;;;;;5.67;1.73;;;;;;;;;;5012927;28;20177;-85
2021/05/06 07:39:31;;;;;;;4.53;1.30;;;;;;;;;;5006873;28;20186;-86
2021/05/06 07:42:36;;;;;;;5.63;1.90;;;;;;;;;;5005591;28;20185;-86
2021/05/06 07:45:40;;;;;;;2.50;1.50;;;;;;;;;;5004864;28;20190;-86
2021/05/06 07:48:44;;;;;;;4.17;1.67;;;;;;;;;;5003962;28;20185;-86
2021/05/06 07:51:49;;;;;;;5.73;1.63;;;;;;;;;;5000073;28;20205;-87
2021/05/06 07:54:55;;;;;;;5.60;2.27;;;;;;;;;;4992493;28;20186;-83
2021/05/06 07:58:00;;;;;;;4.13;1.70;;;;;;;;;;4992409;28;20209;-85
2021/05/06 08:01:04;;;;;;;5.23;1.57;;;;;;;;;;4999556;28;20571;-84
2021/05/06 08:04:08;;;;;;;4.10;1.50;;;;;;;;;;4972905;28;20178;-84
2021/05/06 08:07:12;;;;;;;7.83;1.93;;;;;;;;;;4972550;28;20194;-84
2021/05/06 08:10:18;;;;;;;3.80;1.70;;;;;;;;;;4974054;28;20574;-84
2021/05/06 08:13:26;;;;;;;6.67;1.73;;;;;;;;;;4990520;28;20209;-84
2021/05/06 08:16:30;;;;;;;3.67;1.30;;;;;;;;;;4981218;28;20193;-85
2021/05/06 08:19:34;;;;;;;6.73;4.53;;;;;;;;;;4981145;28;20186;-85
2021/05/06 08:22:40;;;;;;;7.27;6.20;;;;;;;;;;4981286;28;20197;-84
2021/05/06 08:25:44;;;;;;;16.97;10.93;;;;;;;;;;4992134;28;20680;-84
2021/05/06 08:28:48;;;;;;;5.37;3.77;;;;;;;;;;4981691;28;20205;-84
2021/05/06 08:31:54;;;;;;;14.50;9.97;;;;;;;;;;4992655;28;20181;-84
2021/05/06 08:34:58;;;;;;;12.33;4.30;;;;;;;;;;4992394;28;20201;-84
2021/05/06 08:38:02;;;;;;;6.03;2.00;;;;;;;;;;4992492;28;20177;-85
2021/05/06 08:41:06;;;;;;;7.57;1.57;;;;;;;;;;4981282;28;20208;-84
2021/05/06 08:44:14;;;;;;;8.97;2.00;;;;;;;;;;4981163;28;20177;-84
2021/05/06 08:47:21;;;;;;;5.57;2.00;;;;;;;;;;4980507;28;20197;-84
2021/05/06 08:50:25;;;;;;;4.57;1.30;;;;;;;;;;4991754;28;20217;-84
2021/05/06 09:17:37;;;;;;;6.33;1.77;;;;;;;;;;5006574;28;20653;-81
2021/05/06 09:20:41;;;;;;;7.37;2.90;;;;;;;;;;4983165;28;20562;-81
2021/05/06 09:23:46;;;;;;;9.50;6.57;;;;;;;;;;4983108;28;20174;-81
2021/05/06 09:27:01;;;;;;;3.60;2.27;;;;;;;;;;4982980;28;20205;-81
2021/05/06 09:30:12;;;;;;;5.83;1.37;;;;;;;;;;4991081;28;20217;-81
2021/05/06 09:33:17;;;;;;;4.00;1.60;;;;;;;;;;4979886;28;20225;-81
2021/05/06 09:36:25;;;;;;;3.77;1.37;;;;;;;;;;5002259;28;20186;-81
2021/05/06 09:39:29;;;;;;;5.30;1.53;;;;;;;;;;4991150;28;20177;-81
2021/05/06 09:42:41;;;;;;;4.90;1.93;;;;;;;;;;4984005;28;20198;-82
2021/05/06 09:45:45;;;;;;;4.13;1.50;;;;;;;;;;4971755;28;20182;-82
2021/05/06 09:49:06;;;;;;;6.37;1.70;;;;;;;;;;5000814;28;20193;-82
2021/05/06 09:52:10;;;;;;;3.23;1.93;;;;;;;;;;4963759;28;20206;-84
2021/05/06 09:55:14;;;;;;;2.93;1.40;;;;;;;;;;5000255;28;20209;-82
2021/05/06 09:58:24;;;;;;;10.23;2.40;;;;;;;;;;4998150;28;20549;-82
2021/05/06 10:02:06;;;;;;;12.63;2.40;;;;;;;;;;5006735;28;20221;-82
2021/05/06 10:05:15;;;;;;;5.53;1.70;;;;;;;;;;4981095;28;20202;-82
2021/05/06 10:08:33;;;;;;;12.67;2.00;;;;;;;;;;4973608;28;20182;-82
2021/05/06 10:11:37;;;;;;;8.73;1.50;;;;;;;;;;4983687;28;20570;-82
2021/05/06 10:14:45;;;;;;;7.83;1.83;;;;;;;;;;5017438;28;20185;-82
2021/05/06 10:17:51;;;;;;;6.13;1.90;;;;;;;;;;5017812;28;20530;-82
2021/05/06 10:20:55;;;;;;;6.87;1.70;;;;;;;;;;5018709;28;20699;-83
2021/05/06 10:24:01;;;;;;;8.63;1.70;;;;;;;;;;4994652;28;20196;-81
2021/05/06 10:27:05;;;;;;;4.73;1.43;;;;;;;;;;5006722;28;20193;-81
2021/05/06 10:30:10;;;;;;;4.33;1.83;;;;;;;;;;5018311;28;20561;-82
2021/05/06 10:33:21;;;;;;;3.47;1.50;;;;;;;;;;5006521;28;20212;-82
2021/05/06 10:36:25;;;;;;;5.23;1.63;;;;;;;;;;4998229;28;20727;-83
2021/05/06 10:39:37;;;;;;;4.00;1.53;;;;;;;;;;4990444;28;20185;-82
2021/05/06 10:42:41;;;;;;;8.57;1.60;;;;;;;;;;4998777;28;20202;-82
2021/05/06 10:46:04;;;;;;;6.17;1.40;;;;;;;;;;4982582;28;20213;-82
2021/05/06 10:49:08;;;;;;;5.83;1.50;;;;;;;;;;5005969;28;20189;-82
2021/05/06 10:52:14;;;;;;;5.43;1.30;;;;;;;;;;4996362;28;20182;-82
2021/05/06 10:55:47;;;;;;;3.37;1.20;;;;;;;;;;5005437;28;20173;-82
2021/05/06 10:58:51;;;;;;;6.87;1.40;;;;;;;;;;4975527;28;20645;-82
2021/05/06 11:01:56;;;;;;;5.07;1.80;;;;;;;;;;4986117;28;20182;-82
2021/05/06 11:05:12;;;;;;;4.30;1.40;;;;;;;;;;4987274;28;20502;-82
2021/05/06 11:08:23;;;;;;;4.70;1.33;;;;;;;;;;4982044;28;20197;-82
2021/05/06 11:11:27;;;;;;;7.23;1.80;;;;;;;;;;5005228;28;20568;-82
2021/05/06 11:14:30;;;;;;;4.63;1.40;;;;;;;;;;4989231;28;20547;-82
2021/05/06 11:17:35;;;;;;;2.70;1.33;;;;;;;;;;5025441;28;20185;-82
2021/05/06 11:20:42;;;;;;;4.87;1.27;;;;;;;;;;5001864;28;20692;-82
2021/05/06 11:23:51;;;;;;;7.77;1.87;;;;;;;;;;5005752;28;20201;-82
2021/05/06 11:27:08;;;;;;;5.57;1.50;;;;;;;;;;5030500;23;20213;-74
2021/05/06 11:30:32;;;;;;;5.47;1.60;;;;;;;;;;5004492;28;20541;-73
2021/05/06 11:33:36;;;;;;;3.13;1.33;;;;;;;;;;4992498;28;20221;-73
2021/05/06 11:36:40;;;;;;;5.27;1.67;;;;;;;;;;4990058;28;20195;-73
2021/05/06 11:40:06;;;;;;;4.87;1.60;;;;;;;;;;4990151;28;20202;-73
2021/05/06 11:43:20;;;;;;;6.33;2.37;;;;;;;;;;4990442;28;20187;-73
2021/05/06 11:46:27;;;;;;;4.40;1.50;;;;;;;;;;4978804;28;20199;-73
2021/05/06 11:49:31;;;;;;;11.03;1.70;;;;;;;;;;4978816;28;20537;-73
2021/05/06 11:52:36;;;;;;;3.43;1.50;;;;;;;;;;4981980;28;20214;-73
2021/05/06 11:55:43;;;;;;;5.83;1.97;;;;;;;;;;4992587;28;20186;-72
2021/05/06 11:58:50;;;;;;;5.47;1.50;;;;;;;;;;4983852;28;20187;-73
2021/05/06 12:01:57;;;;;;;4.83;1.60;;;;;;;;;;5005107;28;20218;-73
2021/05/06 12:05:01;;;;;;;4.70;1.30;;;;;;;;;;4989021;28;20206;-73
2021/05/06 12:08:06;;;;;;;2.87;1.40;;;;;;;;;;4983830;28;20510;-73
2021/05/06 12:11:10;;;;;;;6.07;1.90;;;;;;;;;;4995379;28;20217;-73
2021/05/06 12:14:15;;;;;;;2.93;1.47;;;;;;;;;;4988838;28;20549;-73
2021/05/06 12:17:19;;;;;;;5.13;1.43;;;;;;;;;;4993103;28;20198;-73
2021/05/06 12:20:24;;;;;;;6.17;1.80;;;;;;;;;;4963707;28;20546;-73
2021/05/06 12:23:28;;;;;;;3.57;1.67;;;;;;;;;;4975719;28;20637;-73
2021/05/06 12:26:33;;;;;;;2.83;1.57;;;;;;;;;;4975566;28;20183;-73
2021/05/06 12:29:37;;;;;;;3.67;1.70;;;;;;;;;;4986904;28;20198;-73
2021/05/06 12:32:43;;;;;;;2.83;1.47;;;;;;;;;;4966370;28;20191;-72
2021/05/06 12:35:49;;;;;;;7.47;2.23;;;;;;;;;;4980449;28;20649;-73
2021/05/06 12:38:57;;;;;;;4.20;1.60;;;;;;;;;;4975027;28;20183;-73
2021/05/06 12:42:06;;;;;;;4.10;1.57;;;;;;;;;;4989096;28;20214;-72
2021/05/06 12:45:13;;;;;;;1.83;1.30;;;;;;;;;;4977960;28;20190;-72
2021/05/06 12:48:43;;;;;;;3.27;1.63;;;;;;;;;;4975921;28;20179;-73
2021/05/06 12:51:47;;;;;;;3.00;1.60;;;;;;;;;;4975333;28;20218;-73
2021/05/06 12:54:51;;;;;;;3.50;1.37;;;;;;;;;;4989120;28;20209;-73
2021/05/06 12:58:15;;;;;;;4.63;1.87;;;;;;;;;;4982596;28;20186;-73
2021/05/06 13:01:32;;;;;;;4.50;1.50;;;;;;;;;;4981392;28;20227;-72
2021/05/06 13:04:45;;;;;;;2.00;1.40;;;;;;;;;;4981114;28;20190;-73
2021/05/06 13:07:51;;;;;;;5.63;1.53;;;;;;;;;;4976949;28;20194;-73
2021/05/06 13:11:00;;;;;;;8.70;4.33;;;;;;;;;;4966709;28;20223;-73
2021/05/06 13:14:04;;;;;;;6.40;4.13;;;;;;;;;;4994150;28;20210;-73
2021/05/06 13:17:27;;;;;;;4.73;2.37;;;;;;;;;;4980613;28;20198;-73
2021/05/06 13:20:31;;;;;;;3.40;1.67;;;;;;;;;;4994312;28;20205;-73
2021/05/06 13:23:35;;;;;;;3.27;1.50;;;;;;;;;;4991252;28;20190;-73
2021/05/06 13:26:42;;;;;;;3.27;1.27;;;;;;;;;;4970001;28;20186;-73
2021/05/06 13:29:48;;;;;;;4.30;1.70;;;;;;;;;;4991047;28;20530;-73
2021/05/06 13:33:20;;;;;;;3.87;1.67;;;;;;;;;;4975587;28;20195;-73
2021/05/06 13:36:26;;;;;;;3.73;1.70;;;;;;;;;;4974740;28;20175;-73
2021/05/06 13:39:32;;;;;;;3.43;1.63;;;;;;;;;;4988250;28;20194;-73
2021/05/06 13:42:38;;;;;;;1.97;1.43;;;;;;;;;;4984836;28;20226;-74
2021/05/06 13:45:42;;;;;;;9.13;6.13;;;;;;;;;;4989936;28;20198;-73
2021/05/06 13:48:46;;;;;;;2.47;1.60;;;;;;;;;;4992292;28;20190;-73
2021/05/06 13:51:52;;;;;;;1.50;1.30;;;;;;;;;;5003993;28;20221;-73
2021/05/06 13:54:57;;;;;;;4.67;2.33;;;;;;;;;;4975278;28;20210;-74
2021/05/06 13:58:01;;;;;;;3.20;2.00;;;;;;;;;;4962763;28;20191;-73
2021/05/06 14:01:07;;;;;;;4.57;1.80;;;;;;;;;;4988700;28;20226;-74
2021/05/06 14:04:12;;;;;;;2.73;1.77;;;;;;;;;;4987369;28;20178;-73
2021/05/06 14:07:16;;;;;;;2.63;1.70;;;;;;;;;;4990545;28;20194;-73
2021/05/06 14:10:20;;;;;;;3.83;2.00;;;;;;;;;;4971077;28;20194;-73
2021/05/06 14:13:26;;;;;;;3.53;1.57;;;;;;;;;;4981779;28;20210;-73
2021/05/06 14:16:31;;;;;;;2.80;1.87;;;;;;;;;;4993589;28;20545;-73
2021/05/06 14:19:35;;;;;;;6.73;2.00;;;;;;;;;;4978863;28;20220;-73
2021/05/06 14:22:39;;;;;;;3.63;1.97;;;;;;;;;;4989622;28;20178;-72
2021/05/06 14:25:45;;;;;;;4.37;1.97;;;;;;;;;;4988892;28;20178;-73
2021/05/06 14:28:49;;;;;;;2.77;1.60;;;;;;;;;;4989036;28;20206;-74
2021/05/06 14:31:53;;;;;;;3.83;1.90;;;;;;;;;;4989559;28;20221;-72
2021/05/06 14:34:57;;;;;;;3.30;1.83;;;;;;;;;;4976341;28;20207;-72
2021/05/06 14:38:02;;;;;;;4.07;1.97;;;;;;;;;;4970301;28;20625;-73
2021/05/06 14:41:07;;;;;;;3.23;1.90;;;;;;;;;;4959185;28;20223;-74
2021/05/06 14:44:11;;;;;;;5.23;1.70;;;;;;;;;;4958101;28;20171;-73
2021/05/06 14:47:16;;;;;;;2.27;2.07;;;;;;;;;;4973095;28;20655;-72
2021/05/06 14:50:20;;;;;;;4.70;2.40;;;;;;;;;;4975993;28;20578;-73
2021/05/06 14:53:24;;;;;;;3.33;2.03;;;;;;;;;;4970170;28;20179;-73
2021/05/06 14:56:29;;;;;;;3.60;1.93;;;;;;;;;;4973195;28;20570;-73
2021/05/06 14:59:33;;;;;;;2.73;1.83;;;;;;;;;;4990635;28;20198;-72
2021/05/06 15:02:37;;;;;;;4.57;2.50;;;;;;;;;;4991667;28;20699;-72
2021/05/06 15:05:42;;;;;;;4.20;2.60;;;;;;;;;;4973579;28;20522;-74
2021/05/06 15:08:47;;;;;;;3.60;2.30;;;;;;;;;;4980306;28;20649;-73
2021/05/06 15:11:55;;;;;;;7.70;2.57;;;;;;;;;;4983614;28;20664;-73
2021/05/06 15:15:00;;;;;;;4.93;2.33;;;;;;;;;;4973474;28;20207;-73
2021/05/06 15:18:04;;;;;;;5.20;2.30;;;;;;;;;;4974614;28;20661;-73
2021/05/06 15:21:09;;;;;;;3.97;2.30;;;;;;;;;;4992065;28;20214;-72
2021/05/06 15:24:13;;;;;;;5.10;2.63;;;;;;;;;;4992230;28;20190;-72
2021/05/06 15:27:17;;;;;;;4.50;2.30;;;;;;;;;;4973099;28;20309;-73
2021/05/06 15:30:22;;;;;;;4.60;1.77;;;;;;;;;;4961328;28;20212;-73
2021/05/06 15:33:26;;;;;;;3.17;2.30;;;;;;;;;;4972629;28;20206;-72
2021/05/06 15:36:30;;;;;;;3.43;2.23;;;;;;;;;;4976027;28;20190;-73
2021/05/06 15:39:38;;;;;;;5.67;2.30;;;;;;;;;;4991878;28;20556;-72
2021/05/06 15:42:44;;;;;;;6.40;2.27;;;;;;;;;;4960759;28;20190;-72
2021/05/06 15:45:48;;;;;;;4.60;2.20;;;;;;;;;;4973037;28;20183;-72
2021/05/06 15:48:53;;;;;;;7.43;2.60;;;;;;;;;;4972918;28;20179;-72
2021/05/06 15:51:58;;;;;;;3.30;1.83;;;;;;;;;;4972858;28;20222;-72
2021/05/06 15:55:08;;;;;;;5.23;2.50;;;;;;;;;;4980494;28;20210;-72
2021/05/06 15:58:13;;;;;;;4.43;2.00;;;;;;;;;;4991276;28;20206;-73
2021/05/06 16:01:19;;;;;;;2.90;2.20;;;;;;;;;;4979927;28;20213;-73
2021/05/06 16:04:29;;;;;;;3.60;2.37;;;;;;;;;;4979962;28;20179;-73
2021/05/06 16:07:33;;;;;;;3.47;2.07;;;;;;;;;;4986316;28;20534;-72
2021/05/06 16:10:37;;;;;;;2.53;2.03;;;;;;;;;;4972040;28;20214;-72
2021/05/06 16:13:41;;;;;;;5.63;2.07;;;;;;;;;;4972225;28;20288;-72
2021/05/06 16:16:46;;;;;;;4.13;2.43;;;;;;;;;;4972047;28;20179;-72
2021/05/06 16:19:51;;;;;;;5.10;2.73;;;;;;;;;;4991020;28;20190;-72
2021/05/06 16:22:55;;;;;;;4.33;2.30;;;;;;;;;;4991547;28;20182;-72
2021/05/06 16:25:59;;;;;;;3.70;2.37;;;;;;;;;;4963525;28;20195;-72
2021/05/06 16:29:04;;;;;;;4.30;2.80;;;;;;;;;;4984012;28;20209;-72
2021/05/06 16:32:08;;;;;;;4.87;3.00;;;;;;;;;;4976207;28;20557;-73
2021/05/06 16:35:18;;;;;;;5.03;2.77;;;;;;;;;;4991310;28;20672;-73
2021/05/06 16:38:23;;;;;;;4.93;2.90;;;;;;;;;;4989505;28;20508;-73
2021/05/06 16:41:48;;;;;;;4.90;2.60;;;;;;;;;;4980491;28;20218;-73
2021/05/06 16:44:53;;;;;;;6.57;2.87;;;;;;;;;;4971448;28;20183;-72
2021/05/06 16:47:57;;;;;;;6.97;3.27;;;;;;;;;;4990955;28;20665;-72
2021/05/06 16:51:02;;;;;;;5.03;2.90;;;;;;;;;;4958820;28;20709;-72
2021/05/06 16:54:06;;;;;;;5.17;3.00;;;;;;;;;;4959474;28;20215;-73
2021/05/06 16:57:10;;;;;;;3.57;2.80;;;;;;;;;;4990266;28;20189;-73
2021/05/06 17:00:15;;;;;;;3.60;2.80;;;;;;;;;;4978509;28;20198;-72
2021/05/06 17:03:20;;;;;;;3.60;2.53;;;;;;;;;;4990573;28;20636;-73
2021/05/06 17:06:25;;;;;;;6.40;2.47;;;;;;;;;;4990744;28;20707;-72
2021/05/06 17:09:29;;;;;;;4.03;2.70;;;;;;;;;;4990818;28;20187;-73
2021/05/06 17:12:33;;;;;;;4.43;2.30;;;;;;;;;;4992441;28;20229;-77
2021/05/06 17:15:39;;;;;;;4.43;2.50;;;;;;;;;;4991758;28;20222;-73
2021/05/06 17:18:45;;;;;;;4.70;2.20;;;;;;;;;;4964071;28;20194;-73
2021/05/06 17:21:50;;;;;;;6.07;2.67;;;;;;;;;;4979531;28;20217;-72
2021/05/06 17:24:54;;;;;;;5.10;2.33;;;;;;;;;;4990853;28;20194;-73
2021/05/06 17:27:58;;;;;;;3.83;2.50;;;;;;;;;;4982858;28;20212;-72
2021/05/06 17:31:02;;;;;;;4.93;2.40;;;;;;;;;;4978141;28;20225;-72
2021/05/06 17:34:07;;;;;;;3.10;1.90;;;;;;;;;;4979525;28;20557;-72
2021/05/06 17:37:12;;;;;;;4.73;2.23;;;;;;;;;;4991379;28;20182;-74
2021/05/06 17:40:19;;;;;;;3.70;2.33;;;;;;;;;;4971230;28;20214;-74
2021/05/06 17:43:24;;;;;;;3.43;2.00;;;;;;;;;;4980884;28;20186;-73
2021/05/06 17:46:28;;;;;;;3.03;2.00;;;;;;;;;;4970481;28;20183;-73
2021/05/06 17:49:36;;;;;;;3.13;1.77;;;;;;;;;;4984019;28;20198;-74
2021/05/06 17:52:40;;;;;;;3.30;1.67;;;;;;;;;;4978095;28;20198;-73
2021/05/06 17:55:45;;;;;;;1.97;1.73;;;;;;;;;;4989505;28;20222;-73
2021/05/06 17:58:53;;;;;;;4.20;2.70;;;;;;;;;;4990126;28;20186;-73
2021/05/06 18:01:57;;;;;;;5.17;3.23;;;;;;;;;;4981183;28;20712;-72
2021/05/06 18:05:02;;;;;;;10.80;3.50;;;;;;;;;;4970396;28;20191;-72
2021/05/06 18:08:09;;;;;;;6.20;3.30;;;;;;;;;;4958012;28;20207;-72
2021/05/06 18:14:30;;;;;;;4.13;2.77;;;;;;;;;;4970407;28;20188;-72
2021/05/06 18:17:35;;;;;;;5.57;2.70;;;;;;;;;;4970407;28;20179;-73
2021/05/06 18:20:40;;;;;;;4.27;3.30;;;;;;;;;;4977207;28;20225;-72
2021/05/06 18:23:44;;;;;;;7.60;3.50;;;;;;;;;;4970777;28;20187;-72
2021/05/06 18:26:48;;;;;;;5.97;4.13;;;;;;;;;;4986643;28;20186;-72
2021/05/06 18:29:54;;;;;;;8.03;4.50;;;;;;;;;;4976232;28;20199;-72
2021/05/06 18:32:58;;;;;;;6.20;4.60;;;;;;;;;;4973987;28;20526;-72
2021/05/06 18:36:03;;;;;;;5.27;4.47;;;;;;;;;;4974885;28;20206;-72
2021/05/06 18:39:08;;;;;;;6.47;4.40;;;;;;;;;;4963046;28;20203;-72
2021/05/06 18:42:13;;;;;;;9.37;4.87;;;;;;;;;;4973646;28;20218;-72
2021/05/06 18:45:17;;;;;;;7.57;5.07;;;;;;;;;;4979502;28;20202;-72
2021/05/06 18:48:21;;;;;;;7.57;5.30;;;;;;;;;;4986490;28;20773;-72
2021/05/06 18:51:27;;;;;;;8.70;5.30;;;;;;;;;;4974001;28;20708;-73
2021/05/06 18:54:32;;;;;;;7.20;4.90;;;;;;;;;;4973545;28;20187;-72
2021/05/06 18:57:36;;;;;;;7.23;4.57;;;;;;;;;;4973033;28;20175;-72
2021/05/06 19:00:40;;;;;;;6.73;4.70;;;;;;;;;;4973923;28;20222;-72
2021/05/06 19:03:45;;;;;;;8.10;4.43;;;;;;;;;;4974097;28;20187;-72
2021/05/06 19:06:49;;;;;;;6.50;4.43;;;;;;;;;;4984182;28;20183;-73
2021/05/06 19:09:54;;;;;;;6.97;4.30;;;;;;;;;;5002820;28;20190;-72
2021/05/06 19:13:02;;;;;;;4.70;3.10;;;;;;;;;;4967475;28;20179;-72
2021/05/06 19:16:06;;;;;;;6.43;3.70;;;;;;;;;;4973502;28;20207;-72
2021/05/06 19:19:10;;;;;;;5.60;3.47;;;;;;;;;;4987804;28;20189;-72
2021/05/06 19:22:14;;;;;;;5.07;2.83;;;;;;;;;;4980456;28;20584;-72
2021/05/06 19:25:19;;;;;;;5.17;3.07;;;;;;;;;;4977733;28;20187;-72
2021/05/06 19:28:23;;;;;;;3.77;2.47;;;;;;;;;;4977629;28;20648;-72
2021/05/06 19:31:28;;;;;;;4.23;2.57;;;;;;;;;;4954319;28;20213;-72
2021/05/06 19:34:32;;;;;;;5.10;2.43;;;;;;;;;;4973267;28;20527;-73
2021/05/06 19:37:37;;;;;;;5.23;2.70;;;;;;;;;;4982130;28;20210;-73
2021/05/06 19:40:41;;;;;;;4.70;2.83;;;;;;;;;;4984261;28;20234;-73
2021/05/06 19:43:48;;;;;;;4.93;2.60;;;;;;;;;;4981712;28;20198;-73
2021/05/06 19:47:09;;;;;;;3.23;2.53;;;;;;;;;;4984929;28;20199;-72
2021/05/06 19:50:13;;;;;;;4.50;2.43;;;;;;;;;;4973020;28;20190;-72
2021/05/06 19:53:17;;;;;;;4.73;2.60;;;;;;;;;;4986836;28;20199;-72
2021/05/06 19:56:22;;;;;;;3.40;2.47;;;;;;;;;;4980897;28;20203;-73
2021/05/06 19:59:28;;;;;;;3.30;2.07;;;;;;;;;;4985877;28;20194;-73
2021/05/06 20:02:33;;;;;;;3.17;1.80;;;;;;;;;;4962522;28;20222;-73
2021/05/06 20:05:37;;;;;;;2.90;2.00;;;;;;;;;;4977405;28;20189;-73
2021/05/06 20:08:42;;;;;;;2.20;1.63;;;;;;;;;;4991112;28;20720;-73
2021/05/06 20:11:47;;;;;;;2.97;1.60;;;;;;;;;;4990414;28;20695;-73
2021/05/06 20:14:51;;;;;;;3.30;1.67;;;;;;;;;;4990398;28;20201;-73
2021/05/06 20:17:55;;;;;;;2.53;1.57;;;;;;;;;;4975179;28;20302;-74
2021/05/06 20:21:23;;;;;;;2.53;1.60;;;;;;;;;;4986747;28;20218;-73
2021/05/06 20:24:29;;;;;;;6.13;2.00;;;;;;;;;;4972260;28;20191;-73
2021/05/06 20:27:33;;;;;;;3.70;1.87;;;;;;;;;;4973230;28;20211;-73
2021/05/06 20:30:37;;;;;;;2.90;1.60;;;;;;;;;;4981307;28;20233;-73
2021/05/06 20:33:41;;;;;;;2.40;1.50;;;;;;;;;;4960196;28;20206;-73
2021/05/06 20:36:45;;;;;;;1.97;1.50;;;;;;;;;;4972540;28;20218;-73
2021/05/06 20:39:50;;;;;;;2.23;1.90;;;;;;;;;;4981835;28;20203;-73
2021/05/06 20:42:56;;;;;;;2.43;1.93;;;;;;;;;;4971277;28;20183;-73
2021/05/06 20:46:01;;;;;;;4.67;2.07;;;;;;;;;;4971499;28;20171;-73
2021/05/06 20:49:05;;;;;;;3.53;1.90;;;;;;;;;;4971653;28;20183;-73
2021/05/06 20:52:11;;;;;;;3.03;1.90;;;;;;;;;;4970993;28;20230;-73
2021/05/06 20:55:18;;;;;;;3.53;2.10;;;;;;;;;;4959131;28;20200;-73
2021/05/06 20:58:22;;;;;;;2.30;1.70;;;;;;;;;;4971273;28;20175;-73
2021/05/06 21:01:27;;;;;;;2.07;1.50;;;;;;;;;;4999192;23;20705;-71
2021/05/06 21:04:32;;;;;;;3.20;1.80;;;;;;;;;;5033931;28;20212;-71
2021/05/06 21:07:37;;;;;;;1.90;1.70;;;;;;;;;;5033863;28;20662;-71
2021/05/06 21:10:42;;;;;;;2.00;1.63;;;;;;;;;;5034064;28;20220;-71
2021/05/06 21:13:46;;;;;;;2.13;1.80;;;;;;;;;;5033780;28;20181;-71
2021/05/06 21:16:51;;;;;;;2.97;1.80;;;;;;;;;;5033679;28;20212;-71
2021/05/06 21:19:57;;;;;;;1.80;1.60;;;;;;;;;;5033735;28;20185;-71
2021/05/06 21:23:01;;;;;;;3.00;1.70;;;;;;;;;;5033688;28;20185;-71
2021/05/06 21:26:05;;;;;;;3.53;2.30;;;;;;;;;;5013076;28;20201;-71
2021/05/06 21:29:11;;;;;;;3.33;2.13;;;;;;;;;;5013857;28;20544;-71
2021/05/06 21:32:16;;;;;;;2.60;2.23;;;;;;;;;;5013658;28;20217;-70
2021/05/06 21:35:20;;;;;;;1.97;1.77;;;;;;;;;;5013708;28;20177;-71
2021/05/06 21:38:24;;;;;;;2.87;2.00;;;;;;;;;;5014313;28;20525;-71
2021/05/06 21:41:28;;;;;;;4.20;2.30;;;;;;;;;;5013352;28;20229;-72
2021/05/06 21:44:32;;;;;;;3.07;2.27;;;;;;;;;;5013417;28;20177;-71
2021/05/06 21:47:37;;;;;;;2.83;2.07;;;;;;;;;;5012871;28;20553;-71
2021/05/06 21:50:42;;;;;;;2.00;1.60;;;;;;;;;;5013812;28;20217;-71
2021/05/06 21:53:46;;;;;;;3.00;1.63;;;;;;;;;;5023197;28;20196;-71
2021/05/06 21:56:50;;;;;;;3.43;1.70;;;;;;;;;;5033171;28;20201;-71